sensor_id;sensor_type;location;lat;lon;timestamp;pressure;altitude;pressure_sealevel;temperature
62930;BMP280;49036;42.782;23.108;2023-06-14T00:01:47;93686.84;;;13.38
62930;BMP280;49036;42.782;23.108;2023-06-14T00:04:14;93698.13;;;13.40
62930;BMP280;49036;42.782;23.108;2023-06-14T00:06:42;93688.44;;;13.41
62930;BMP280;49036;42.782;23.108;2023-06-14T00:09:10;93697.38;;;13.39
62930;BMP280;49036;42.782;23.108;2023-06-14T00:11:38;93689.75;;;13.40
62930;BMP280;49036;42.782;23.108;2023-06-14T00:14:05;93691.22;;;13.41
62930;BMP280;49036;42.782;23.108;2023-06-14T00:16:30;93685.66;;;13.41
62930;BMP280;49036;42.782;23.108;2023-06-14T00:18:58;93690.50;;;13.40
62930;BMP280;49036;42.782;23.108;2023-06-14T00:21:23;93685.44;;;13.37
62930;BMP280;49036;42.782;23.108;2023-06-14T00:23:49;93680.59;;;13.37
62930;BMP280;49036;42.782;23.108;2023-06-14T00:26:14;93678.41;;;13.36
62930;BMP280;49036;42.782;23.108;2023-06-14T00:28:40;93683.75;;;13.32
62930;BMP280;49036;42.782;23.108;2023-06-14T00:31:06;93678.16;;;13.32
62930;BMP280;49036;42.782;23.108;2023-06-14T00:33:31;93671.50;;;13.37
62930;BMP280;49036;42.782;23.108;2023-06-14T00:35:57;93677.78;;;13.37
62930;BMP280;49036;42.782;23.108;2023-06-14T00:38:22;93669.44;;;13.51
62930;BMP280;49036;42.782;23.108;2023-06-14T00:40:48;93664.28;;;13.59
62930;BMP280;49036;42.782;23.108;2023-06-14T00:43:14;93672.44;;;13.69
62930;BMP280;49036;42.782;23.108;2023-06-14T00:45:39;93665.53;;;13.70
62930;BMP280;49036;42.782;23.108;2023-06-14T00:48:05;93665.63;;;13.72
62930;BMP280;49036;42.782;23.108;2023-06-14T00:50:34;93660.69;;;13.70
62930;BMP280;49036;42.782;23.108;2023-06-14T00:53:01;93665.75;;;13.74
62930;BMP280;49036;42.782;23.108;2023-06-14T00:55:27;93662.13;;;13.71
62930;BMP280;49036;42.782;23.108;2023-06-14T00:57:54;93669.16;;;13.72
62930;BMP280;49036;42.782;23.108;2023-06-14T01:00:20;93658.09;;;13.74
62930;BMP280;49036;42.782;23.108;2023-06-14T01:02:45;93662.25;;;13.73
62930;BMP280;49036;42.782;23.108;2023-06-14T01:05:12;93651.69;;;13.72
62930;BMP280;49036;42.782;23.108;2023-06-14T01:10:39;93650.38;;;13.73
62930;BMP280;49036;42.782;23.108;2023-06-14T01:13:18;93656.75;;;13.75
62930;BMP280;49036;42.782;23.108;2023-06-14T01:15:46;93655.53;;;13.78
62930;BMP280;49036;42.782;23.108;2023-06-14T01:18:12;93663.38;;;13.82
62930;BMP280;49036;42.782;23.108;2023-06-14T01:20:45;93661.31;;;13.82
62930;BMP280;49036;42.782;23.108;2023-06-14T01:23:14;93650.94;;;13.85
62930;BMP280;49036;42.782;23.108;2023-06-14T01:25:40;93652.63;;;13.90
62930;BMP280;49036;42.782;23.108;2023-06-14T01:28:10;93655.63;;;13.94
62930;BMP280;49036;42.782;23.108;2023-06-14T01:30:38;93657.81;;;13.95
62930;BMP280;49036;42.782;23.108;2023-06-14T01:33:04;93647.88;;;13.92
62930;BMP280;49036;42.782;23.108;2023-06-14T01:35:31;93654.06;;;13.91
62930;BMP280;49036;42.782;23.108;2023-06-14T01:37:57;93652.72;;;13.92
62930;BMP280;49036;42.782;23.108;2023-06-14T01:40:23;93655.63;;;13.94
62930;BMP280;49036;42.782;23.108;2023-06-14T01:42:50;93651.69;;;13.99
62930;BMP280;49036;42.782;23.108;2023-06-14T01:45:18;93664.09;;;13.96
62930;BMP280;49036;42.782;23.108;2023-06-14T01:47:45;93656.16;;;13.90
62930;BMP280;49036;42.782;23.108;2023-06-14T01:50:11;93655.53;;;13.92
62930;BMP280;49036;42.782;23.108;2023-06-14T01:52:37;93653.56;;;13.94
62930;BMP280;49036;42.782;23.108;2023-06-14T01:55:04;93669.69;;;13.96
62930;BMP280;49036;42.782;23.108;2023-06-14T01:57:30;93670.09;;;13.90
62930;BMP280;49036;42.782;23.108;2023-06-14T01:59:56;93673.09;;;13.94
62930;BMP280;49036;42.782;23.108;2023-06-14T02:02:21;93681.53;;;13.96
62930;BMP280;49036;42.782;23.108;2023-06-14T02:04:47;93678.75;;;13.96
62930;BMP280;49036;42.782;23.108;2023-06-14T02:07:15;93676.50;;;13.93
62930;BMP280;49036;42.782;23.108;2023-06-14T02:09:41;93676.50;;;13.93
62930;BMP280;49036;42.782;23.108;2023-06-14T02:12:07;93683.13;;;14.00
62930;BMP280;49036;42.782;23.108;2023-06-14T02:14:33;93685.28;;;14.01
62930;BMP280;49036;42.782;23.108;2023-06-14T02:16:59;93685.91;;;14.00
62930;BMP280;49036;42.782;23.108;2023-06-14T02:19:26;93694.28;;;14.00
62930;BMP280;49036;42.782;23.108;2023-06-14T02:21:52;93688.19;;;13.89
62930;BMP280;49036;42.782;23.108;2023-06-14T02:24:18;93700.25;;;13.94
62930;BMP280;49036;42.782;23.108;2023-06-14T02:26:43;93687.75;;;13.95
62930;BMP280;49036;42.782;23.108;2023-06-14T02:29:09;93688.56;;;13.98
62930;BMP280;49036;42.782;23.108;2023-06-14T02:31:38;93685.78;;;13.98
62930;BMP280;49036;42.782;23.108;2023-06-14T02:34:03;93689.84;;;13.94
62930;BMP280;49036;42.782;23.108;2023-06-14T02:36:29;93682.97;;;13.98
62930;BMP280;49036;42.782;23.108;2023-06-14T02:38:57;93687.34;;;14.01
62930;BMP280;49036;42.782;23.108;2023-06-14T02:41:26;93686.63;;;14.00
62930;BMP280;49036;42.782;23.108;2023-06-14T02:43:52;93682.97;;;13.98
62930;BMP280;49036;42.782;23.108;2023-06-14T02:46:18;93684.75;;;13.91
62930;BMP280;49036;42.782;23.108;2023-06-14T02:48:44;93684.03;;;13.90
62930;BMP280;49036;42.782;23.108;2023-06-14T02:51:09;93687.97;;;13.99
62930;BMP280;49036;42.782;23.108;2023-06-14T02:53:35;93685.06;;;13.97
62930;BMP280;49036;42.782;23.108;2023-06-14T02:56:02;93684.88;;;13.93
62930;BMP280;49036;42.782;23.108;2023-06-14T02:58:29;93681.34;;;13.92
62930;BMP280;49036;42.782;23.108;2023-06-14T03:00:55;93681.88;;;13.89
62930;BMP280;49036;42.782;23.108;2023-06-14T03:03:21;93688.50;;;13.95
62930;BMP280;49036;42.782;23.108;2023-06-14T03:05:49;93689.84;;;13.94
62930;BMP280;49036;42.782;23.108;2023-06-14T03:08:18;93698.38;;;13.85
62930;BMP280;49036;42.782;23.108;2023-06-14T03:10:46;93700.69;;;13.88
62930;BMP280;49036;42.782;23.108;2023-06-14T03:13:13;93700.38;;;13.82
62930;BMP280;49036;42.782;23.108;2023-06-14T03:15:38;93694.56;;;13.78
62930;BMP280;49036;42.782;23.108;2023-06-14T03:18:08;93689.38;;;13.59
62930;BMP280;49036;42.782;23.108;2023-06-14T03:20:35;93704.00;;;13.46
62930;BMP280;49036;42.782;23.108;2023-06-14T03:23:01;93701.50;;;13.38
62930;BMP280;49036;42.782;23.108;2023-06-14T03:25:27;93702.03;;;13.35
62930;BMP280;49036;42.782;23.108;2023-06-14T03:27:57;93703.66;;;13.26
62930;BMP280;49036;42.782;23.108;2023-06-14T03:30:23;93706.81;;;13.20
62930;BMP280;49036;42.782;23.108;2023-06-14T03:32:48;93701.91;;;13.19
62930;BMP280;49036;42.782;23.108;2023-06-14T03:35:14;93710.28;;;13.33
62930;BMP280;49036;42.782;23.108;2023-06-14T03:37:46;93703.00;;;13.53
62930;BMP280;49036;42.782;23.108;2023-06-14T03:40:12;93703.38;;;13.73
62930;BMP280;49036;42.782;23.108;2023-06-14T03:42:39;93701.19;;;13.99
62930;BMP280;49036;42.782;23.108;2023-06-14T03:45:06;93702.63;;;14.27
62930;BMP280;49036;42.782;23.108;2023-06-14T03:47:32;93705.34;;;14.25
62930;BMP280;49036;42.782;23.108;2023-06-14T03:49:57;93707.78;;;14.46
62930;BMP280;49036;42.782;23.108;2023-06-14T03:52:23;93714.22;;;14.65
62930;BMP280;49036;42.782;23.108;2023-06-14T03:54:49;93713.16;;;14.85
62930;BMP280;49036;42.782;23.108;2023-06-14T03:57:15;93708.06;;;15.11
62930;BMP280;49036;42.782;23.108;2023-06-14T03:59:40;93715.53;;;15.52
62930;BMP280;49036;42.782;23.108;2023-06-14T04:02:06;93720.66;;;15.73
62930;BMP280;49036;42.782;23.108;2023-06-14T04:04:32;93727.16;;;15.93
62930;BMP280;49036;42.782;23.108;2023-06-14T04:07:01;93718.66;;;16.07
62930;BMP280;49036;42.782;23.108;2023-06-14T04:09:29;93714.47;;;16.24
62930;BMP280;49036;42.782;23.108;2023-06-14T04:11:55;93722.13;;;16.23
62930;BMP280;49036;42.782;23.108;2023-06-14T04:14:21;93727.16;;;16.43
62930;BMP280;49036;42.782;23.108;2023-06-14T04:16:48;93720.53;;;16.52
62930;BMP280;49036;42.782;23.108;2023-06-14T04:19:14;93716.13;;;16.64
62930;BMP280;49036;42.782;23.108;2023-06-14T04:21:40;93715.50;;;16.66
62930;BMP280;49036;42.782;23.108;2023-06-14T04:24:05;93717.28;;;16.75
62930;BMP280;49036;42.782;23.108;2023-06-14T04:26:32;93716.94;;;16.85
62930;BMP280;49036;42.782;23.108;2023-06-14T04:29:01;93711.50;;;16.89
62930;BMP280;49036;42.782;23.108;2023-06-14T04:31:30;93723.09;;;16.99
62930;BMP280;49036;42.782;23.108;2023-06-14T04:33:59;93722.94;;;17.13
62930;BMP280;49036;42.782;23.108;2023-06-14T04:37:52;93731.41;;;17.32
62930;BMP280;49036;42.782;23.108;2023-06-14T04:40:18;93728.16;;;17.58
62930;BMP280;49036;42.782;23.108;2023-06-14T04:42:44;93721.69;;;17.73
62930;BMP280;49036;42.782;23.108;2023-06-14T04:45:11;93725.63;;;17.86
62930;BMP280;49036;42.782;23.108;2023-06-14T04:47:38;93719.75;;;18.17
62930;BMP280;49036;42.782;23.108;2023-06-14T04:50:04;93731.81;;;18.63
62930;BMP280;49036;42.782;23.108;2023-06-14T04:52:29;93723.72;;;18.97
62930;BMP280;49036;42.782;23.108;2023-06-14T04:54:56;93729.00;;;19.31
62930;BMP280;49036;42.782;23.108;2023-06-14T04:57:21;93733.09;;;19.75
62930;BMP280;49036;42.782;23.108;2023-06-14T04:59:48;93736.97;;;20.14
62930;BMP280;49036;42.782;23.108;2023-06-14T05:02:14;93739.31;;;20.51
62930;BMP280;49036;42.782;23.108;2023-06-14T05:04:39;93739.41;;;21.13
62930;BMP280;49036;42.782;23.108;2023-06-14T05:07:08;93740.88;;;21.48
62930;BMP280;49036;42.782;23.108;2023-06-14T05:09:37;93744.97;;;20.79
62930;BMP280;49036;42.782;23.108;2023-06-14T05:12:03;93749.09;;;20.46
62930;BMP280;49036;42.782;23.108;2023-06-14T05:14:29;93753.91;;;19.90
62930;BMP280;49036;42.782;23.108;2023-06-14T05:16:54;93759.34;;;19.34
62930;BMP280;49036;42.782;23.108;2023-06-14T05:19:20;93767.69;;;19.30
62930;BMP280;49036;42.782;23.108;2023-06-14T05:21:46;93772.75;;;18.90
62930;BMP280;49036;42.782;23.108;2023-06-14T05:24:13;93773.59;;;18.73
62930;BMP280;49036;42.782;23.108;2023-06-14T05:26:39;93776.91;;;18.67
62930;BMP280;49036;42.782;23.108;2023-06-14T05:29:05;93773.06;;;18.57
62930;BMP280;49036;42.782;23.108;2023-06-14T05:31:30;93779.53;;;18.61
62930;BMP280;49036;42.782;23.108;2023-06-14T05:33:56;93784.66;;;18.27
62930;BMP280;49036;42.782;23.108;2023-06-14T05:36:22;93779.38;;;18.16
62930;BMP280;49036;42.782;23.108;2023-06-14T05:38:47;93778.28;;;18.05
62930;BMP280;49036;42.782;23.108;2023-06-14T05:42:41;93778.09;;;18.60
62930;BMP280;49036;42.782;23.108;2023-06-14T05:45:07;93770.56;;;18.89
62930;BMP280;49036;42.782;23.108;2023-06-14T05:47:32;93768.09;;;19.21
62930;BMP280;49036;42.782;23.108;2023-06-14T05:49:58;93776.25;;;19.34
62930;BMP280;49036;42.782;23.108;2023-06-14T05:52:23;93773.00;;;19.68
62930;BMP280;49036;42.782;23.108;2023-06-14T05:54:49;93779.06;;;19.58
62930;BMP280;49036;42.782;23.108;2023-06-14T05:57:14;93784.88;;;19.64
62930;BMP280;49036;42.782;23.108;2023-06-14T05:59:40;93777.03;;;19.86
62930;BMP280;49036;42.782;23.108;2023-06-14T06:02:05;93777.19;;;20.16
62930;BMP280;49036;42.782;23.108;2023-06-14T06:04:31;93781.91;;;20.36
62930;BMP280;49036;42.782;23.108;2023-06-14T06:06:56;93784.81;;;20.38
62930;BMP280;49036;42.782;23.108;2023-06-14T06:09:22;93784.34;;;20.47
62930;BMP280;49036;42.782;23.108;2023-06-14T06:11:47;93785.97;;;20.29
62930;BMP280;49036;42.782;23.108;2023-06-14T06:14:13;93782.09;;;20.16
62930;BMP280;49036;42.782;23.108;2023-06-14T06:16:38;93781.78;;;20.30
62930;BMP280;49036;42.782;23.108;2023-06-14T06:19:04;93774.78;;;20.58
62930;BMP280;49036;42.782;23.108;2023-06-14T06:21:29;93777.31;;;20.76
62930;BMP280;49036;42.782;23.108;2023-06-14T06:23:55;93779.19;;;20.95
62930;BMP280;49036;42.782;23.108;2023-06-14T06:26:22;93779.63;;;21.14
62930;BMP280;49036;42.782;23.108;2023-06-14T06:28:48;93791.09;;;21.54
62930;BMP280;49036;42.782;23.108;2023-06-14T06:31:13;93783.81;;;21.77
62930;BMP280;49036;42.782;23.108;2023-06-14T06:33:39;93780.03;;;21.98
62930;BMP280;49036;42.782;23.108;2023-06-14T06:36:05;93786.31;;;22.32
62930;BMP280;49036;42.782;23.108;2023-06-14T06:38:30;93793.16;;;22.59
62930;BMP280;49036;42.782;23.108;2023-06-14T06:40:56;93784.09;;;22.65
62930;BMP280;49036;42.782;23.108;2023-06-14T06:43:22;93787.00;;;22.71
62930;BMP280;49036;42.782;23.108;2023-06-14T06:45:47;93794.19;;;22.78
62930;BMP280;49036;42.782;23.108;2023-06-14T06:48:13;93793.69;;;22.90
62930;BMP280;49036;42.782;23.108;2023-06-14T06:50:39;93787.84;;;23.26
62930;BMP280;49036;42.782;23.108;2023-06-14T06:53:04;93793.84;;;23.48
62930;BMP280;49036;42.782;23.108;2023-06-14T06:55:32;93795.69;;;23.83
62930;BMP280;49036;42.782;23.108;2023-06-14T06:57:57;93797.31;;;23.98
62930;BMP280;49036;42.782;23.108;2023-06-14T07:00:23;93796.56;;;23.96
62930;BMP280;49036;42.782;23.108;2023-06-14T07:02:49;93794.00;;;24.20
62930;BMP280;49036;42.782;23.108;2023-06-14T07:05:54;93800.56;;;24.37
62930;BMP280;49036;42.782;23.108;2023-06-14T07:08:19;93798.50;;;24.44
62930;BMP280;49036;42.782;23.108;2023-06-14T07:11:22;93793.06;;;24.72
62930;BMP280;49036;42.782;23.108;2023-06-14T07:13:48;93797.88;;;24.55
62930;BMP280;49036;42.782;23.108;2023-06-14T07:16:13;93799.09;;;24.30
62930;BMP280;49036;42.782;23.108;2023-06-14T07:18:38;93794.53;;;24.03
62930;BMP280;49036;42.782;23.108;2023-06-14T07:21:04;93793.25;;;24.16
62930;BMP280;49036;42.782;23.108;2023-06-14T07:23:29;93797.34;;;24.03
62930;BMP280;49036;42.782;23.108;2023-06-14T07:25:55;93794.97;;;23.81
62930;BMP280;49036;42.782;23.108;2023-06-14T07:28:20;93796.88;;;24.24
62930;BMP280;49036;42.782;23.108;2023-06-14T07:30:46;93788.81;;;24.73
62930;BMP280;49036;42.782;23.108;2023-06-14T07:33:13;93790.47;;;25.00
62930;BMP280;49036;42.782;23.108;2023-06-14T07:35:39;93786.41;;;25.28
62930;BMP280;49036;42.782;23.108;2023-06-14T07:38:23;93798.53;;;25.42
62930;BMP280;49036;42.782;23.108;2023-06-14T07:40:48;93803.53;;;25.40
62930;BMP280;49036;42.782;23.108;2023-06-14T07:43:14;93799.31;;;25.47
62930;BMP280;49036;42.782;23.108;2023-06-14T07:45:40;93803.59;;;25.56
62930;BMP280;49036;42.782;23.108;2023-06-14T07:48:05;93805.81;;;25.74
62930;BMP280;49036;42.782;23.108;2023-06-14T07:50:31;93800.97;;;26.05
62930;BMP280;49036;42.782;23.108;2023-06-14T07:52:56;93807.28;;;25.79
62930;BMP280;49036;42.782;23.108;2023-06-14T07:55:22;93809.91;;;25.40
62930;BMP280;49036;42.782;23.108;2023-06-14T07:57:47;93810.16;;;25.91
62930;BMP280;49036;42.782;23.108;2023-06-14T08:00:13;93815.91;;;26.09
62930;BMP280;49036;42.782;23.108;2023-06-14T08:02:44;93810.16;;;25.95
62930;BMP280;49036;42.782;23.108;2023-06-14T08:05:11;93817.28;;;25.92
62930;BMP280;49036;42.782;23.108;2023-06-14T08:07:37;93818.81;;;26.29
62930;BMP280;49036;42.782;23.108;2023-06-14T08:10:04;93823.06;;;26.34
62930;BMP280;49036;42.782;23.108;2023-06-14T08:12:29;93825.25;;;26.78
62930;BMP280;49036;42.782;23.108;2023-06-14T08:14:55;93830.94;;;26.72
62930;BMP280;49036;42.782;23.108;2023-06-14T08:17:20;93811.72;;;26.97
62930;BMP280;49036;42.782;23.108;2023-06-14T08:19:46;93835.97;;;26.82
62930;BMP280;49036;42.782;23.108;2023-06-14T08:23:03;93834.16;;;25.55
62930;BMP280;49036;42.782;23.108;2023-06-14T08:25:30;93833.00;;;26.19
62930;BMP280;49036;42.782;23.108;2023-06-14T08:27:56;93835.25;;;26.84
62930;BMP280;49036;42.782;23.108;2023-06-14T08:30:21;93831.69;;;26.97
62930;BMP280;49036;42.782;23.108;2023-06-14T08:32:47;93825.88;;;27.64
62930;BMP280;49036;42.782;23.108;2023-06-14T08:35:13;93828.13;;;27.09
62930;BMP280;49036;42.782;23.108;2023-06-14T08:37:42;93824.56;;;26.96
62930;BMP280;49036;42.782;23.108;2023-06-14T08:40:21;93821.72;;;26.84
62930;BMP280;49036;42.782;23.108;2023-06-14T08:42:50;93828.13;;;26.76
62930;BMP280;49036;42.782;23.108;2023-06-14T08:45:42;93826.66;;;26.53
62930;BMP280;49036;42.782;23.108;2023-06-14T08:48:07;93816.03;;;26.78
62930;BMP280;49036;42.782;23.108;2023-06-14T08:50:36;93827.38;;;26.39
62930;BMP280;49036;42.782;23.108;2023-06-14T08:53:02;93821.69;;;26.48
62930;BMP280;49036;42.782;23.108;2023-06-14T08:55:30;93810.09;;;25.81
62930;BMP280;49036;42.782;23.108;2023-06-14T08:57:57;93821.53;;;25.89
62930;BMP280;49036;42.782;23.108;2023-06-14T09:00:24;93820.09;;;25.90
62930;BMP280;49036;42.782;23.108;2023-06-14T09:02:51;93820.22;;;26.24
62930;BMP280;49036;42.782;23.108;2023-06-14T09:05:22;93817.44;;;26.65
62930;BMP280;49036;42.782;23.108;2023-06-14T09:07:48;93811.75;;;26.49
62930;BMP280;49036;42.782;23.108;2023-06-14T09:10:16;93802.50;;;26.68
62930;BMP280;49036;42.782;23.108;2023-06-14T09:12:42;93803.19;;;27.09
62930;BMP280;49036;42.782;23.108;2023-06-14T09:16:54;93792.44;;;26.09
62930;BMP280;49036;42.782;23.108;2023-06-14T09:19:25;93800.34;;;26.43
62930;BMP280;49036;42.782;23.108;2023-06-14T09:21:52;93801.06;;;26.71
62930;BMP280;49036;42.782;23.108;2023-06-14T09:25:12;93800.31;;;26.22
62930;BMP280;49036;42.782;23.108;2023-06-14T09:27:40;93802.91;;;25.62
62930;BMP280;49036;42.782;23.108;2023-06-14T09:30:09;93799.31;;;25.47
62930;BMP280;49036;42.782;23.108;2023-06-14T09:32:39;93798.56;;;25.48
62930;BMP280;49036;42.782;23.108;2023-06-14T09:35:09;93792.91;;;25.46
62930;BMP280;49036;42.782;23.108;2023-06-14T09:39:07;93782.50;;;26.20
62930;BMP280;49036;42.782;23.108;2023-06-14T09:43:46;93792.47;;;27.36
62930;BMP280;49036;42.782;23.108;2023-06-14T09:46:53;93792.38;;;27.67
62930;BMP280;49036;42.782;23.108;2023-06-14T09:49:20;93782.63;;;28.47
62930;BMP280;49036;42.782;23.108;2023-06-14T09:51:51;93779.81;;;29.24
62930;BMP280;49036;42.782;23.108;2023-06-14T09:54:22;93782.72;;;29.80
62930;BMP280;49036;42.782;23.108;2023-06-14T09:56:48;93777.94;;;30.15
62930;BMP280;49036;42.782;23.108;2023-06-14T09:59:19;93783.06;;;30.53
62930;BMP280;49036;42.782;23.108;2023-06-14T10:01:48;93778.66;;;31.03
62930;BMP280;49036;42.782;23.108;2023-06-14T10:04:15;93774.81;;;31.54
62930;BMP280;49036;42.782;23.108;2023-06-14T10:07:01;93774.84;;;32.47
62930;BMP280;49036;42.782;23.108;2023-06-14T10:09:28;93773.25;;;33.09
62930;BMP280;49036;42.782;23.108;2023-06-14T10:11:55;93779.22;;;33.53
62930;BMP280;49036;42.782;23.108;2023-06-14T10:14:21;93769.53;;;33.15
62930;BMP280;49036;42.782;23.108;2023-06-14T10:17:03;93765.25;;;32.85
62930;BMP280;49036;42.782;23.108;2023-06-14T10:19:54;93758.03;;;32.59
62930;BMP280;49036;42.782;23.108;2023-06-14T10:22:37;93764.19;;;30.71
62930;BMP280;49036;42.782;23.108;2023-06-14T10:25:07;93755.47;;;32.16
62930;BMP280;49036;42.782;23.108;2023-06-14T10:27:37;93758.34;;;32.16
62930;BMP280;49036;42.782;23.108;2023-06-14T10:30:07;93762.09;;;32.97
62930;BMP280;49036;42.782;23.108;2023-06-14T10:32:33;93765.94;;;33.14
62930;BMP280;49036;42.782;23.108;2023-06-14T10:35:00;93758.47;;;32.10
62930;BMP280;49036;42.782;23.108;2023-06-14T10:37:26;93752.66;;;32.14
62930;BMP280;49036;42.782;23.108;2023-06-14T10:40:30;93759.44;;;32.01
62930;BMP280;49036;42.782;23.108;2023-06-14T10:42:56;93750.06;;;31.36
62930;BMP280;49036;42.782;23.108;2023-06-14T10:45:21;93747.59;;;30.77
62930;BMP280;49036;42.782;23.108;2023-06-14T10:47:49;93745.88;;;30.92
62930;BMP280;49036;42.782;23.108;2023-06-14T10:50:17;93744.53;;;31.59
62930;BMP280;49036;42.782;23.108;2023-06-14T10:52:44;93746.25;;;32.42
62930;BMP280;49036;42.782;23.108;2023-06-14T10:55:15;93736.41;;;33.41
62930;BMP280;49036;42.782;23.108;2023-06-14T10:57:42;93731.47;;;32.59
62930;BMP280;49036;42.782;23.108;2023-06-14T11:00:09;93733.41;;;32.93
62930;BMP280;49036;42.782;23.108;2023-06-14T11:05:57;93717.91;;;34.26
62930;BMP280;49036;42.782;23.108;2023-06-14T11:09:04;93713.09;;;34.83
62930;BMP280;49036;42.782;23.108;2023-06-14T11:11:35;93704.25;;;34.48
62930;BMP280;49036;42.782;23.108;2023-06-14T11:14:02;93706.41;;;33.81
62930;BMP280;49036;42.782;23.108;2023-06-14T11:16:28;93711.16;;;32.94
62930;BMP280;49036;42.782;23.108;2023-06-14T11:18:54;93699.59;;;31.49
62930;BMP280;49036;42.782;23.108;2023-06-14T11:21:19;93706.09;;;30.72
62930;BMP280;49036;42.782;23.108;2023-06-14T11:23:52;93695.81;;;31.57
62930;BMP280;49036;42.782;23.108;2023-06-14T11:26:26;93700.25;;;33.93
62930;BMP280;49036;42.782;23.108;2023-06-14T11:28:57;93703.44;;;35.86
62930;BMP280;49036;42.782;23.108;2023-06-14T11:31:23;93703.53;;;37.03
62930;BMP280;49036;42.782;23.108;2023-06-14T11:35:52;93713.00;;;37.64
62930;BMP280;49036;42.782;23.108;2023-06-14T11:40:28;93706.81;;;38.45
62930;BMP280;49036;42.782;23.108;2023-06-14T11:43:01;93696.53;;;38.34
62930;BMP280;49036;42.782;23.108;2023-06-14T11:45:27;93698.56;;;36.68
62930;BMP280;49036;42.782;23.108;2023-06-14T11:47:55;93692.50;;;35.89
62930;BMP280;49036;42.782;23.108;2023-06-14T11:50:24;93693.28;;;37.52
62930;BMP280;49036;42.782;23.108;2023-06-14T11:52:54;93685.13;;;38.71
62930;BMP280;49036;42.782;23.108;2023-06-14T11:55:21;93686.31;;;40.19
62930;BMP280;49036;42.782;23.108;2023-06-14T11:57:47;93677.94;;;41.31
62930;BMP280;49036;42.782;23.108;2023-06-14T12:00:13;93681.09;;;42.48
62930;BMP280;49036;42.782;23.108;2023-06-14T12:02:41;93672.69;;;42.95
62930;BMP280;49036;42.782;23.108;2023-06-14T12:05:07;93664.69;;;42.63
62930;BMP280;49036;42.782;23.108;2023-06-14T12:07:38;93666.34;;;42.71
62930;BMP280;49036;42.782;23.108;2023-06-14T12:10:08;93669.34;;;43.01
62930;BMP280;49036;42.782;23.108;2023-06-14T12:12:39;93667.22;;;43.50
62930;BMP280;49036;42.782;23.108;2023-06-14T12:15:07;93666.75;;;43.56
62930;BMP280;49036;42.782;23.108;2023-06-14T12:17:36;93656.94;;;42.28
62930;BMP280;49036;42.782;23.108;2023-06-14T12:20:08;93661.78;;;41.45
62930;BMP280;49036;42.782;23.108;2023-06-14T12:22:55;93662.78;;;42.07
62930;BMP280;49036;42.782;23.108;2023-06-14T12:28:07;93662.97;;;43.88
62930;BMP280;49036;42.782;23.108;2023-06-14T12:30:34;93650.63;;;43.76
62930;BMP280;49036;42.782;23.108;2023-06-14T12:33:04;93649.59;;;43.31
62930;BMP280;49036;42.782;23.108;2023-06-14T12:35:29;93656.00;;;43.34
62930;BMP280;49036;42.782;23.108;2023-06-14T12:37:55;93646.59;;;43.22
62930;BMP280;49036;42.782;23.108;2023-06-14T12:40:21;93646.50;;;42.10
62930;BMP280;49036;42.782;23.108;2023-06-14T12:42:47;93647.00;;;43.27
62930;BMP280;49036;42.782;23.108;2023-06-14T12:45:13;93637.63;;;45.14
62930;BMP280;49036;42.782;23.108;2023-06-14T12:47:39;93633.63;;;44.73
62930;BMP280;49036;42.782;23.108;2023-06-14T12:50:05;93629.06;;;43.52
62930;BMP280;49036;42.782;23.108;2023-06-14T12:52:31;93632.38;;;42.87
62930;BMP280;49036;42.782;23.108;2023-06-14T12:54:56;93629.16;;;43.61
62930;BMP280;49036;42.782;23.108;2023-06-14T12:57:23;93434.44;;;41.13
62930;BMP280;49036;42.782;23.108;2023-06-14T12:59:48;93431.03;;;38.37
62930;BMP280;49036;42.782;23.108;2023-06-14T13:02:18;93633.63;;;36.15
62930;BMP280;49036;42.782;23.108;2023-06-14T13:04:44;93630.94;;;33.31
62930;BMP280;49036;42.782;23.108;2023-06-14T13:07:10;93632.69;;;31.88
62930;BMP280;49036;42.782;23.108;2023-06-14T13:09:40;93627.00;;;30.09
62930;BMP280;49036;42.782;23.108;2023-06-14T13:12:06;93630.53;;;29.16
62930;BMP280;49036;42.782;23.108;2023-06-14T13:14:32;93631.91;;;28.56
62930;BMP280;49036;42.782;23.108;2023-06-14T13:16:57;93641.72;;;27.97
62930;BMP280;49036;42.782;23.108;2023-06-14T13:19:23;93637.00;;;27.57
62930;BMP280;49036;42.782;23.108;2023-06-14T13:21:49;93632.94;;;27.14
62930;BMP280;49036;42.782;23.108;2023-06-14T13:24:14;93648.00;;;26.76
62930;BMP280;49036;42.782;23.108;2023-06-14T13:26:40;93643.81;;;26.36
62930;BMP280;49036;42.782;23.108;2023-06-14T13:29:06;93642.38;;;26.21
62930;BMP280;49036;42.782;23.108;2023-06-14T13:31:31;93633.16;;;26.17
62930;BMP280;49036;42.782;23.108;2023-06-14T13:33:57;93636.69;;;26.17
62930;BMP280;49036;42.782;23.108;2023-06-14T13:36:22;93635.97;;;26.21
62930;BMP280;49036;42.782;23.108;2023-06-14T13:38:48;93630.97;;;26.31
62930;BMP280;49036;42.782;23.108;2023-06-14T13:42:52;93630.63;;;27.43
62930;BMP280;49036;42.782;23.108;2023-06-14T13:45:18;93630.16;;;28.14
62930;BMP280;49036;42.782;23.108;2023-06-14T13:47:43;93624.66;;;28.65
62930;BMP280;49036;42.782;23.108;2023-06-14T13:50:10;93625.06;;;28.94
62930;BMP280;49036;42.782;23.108;2023-06-14T13:52:35;93622.97;;;28.92
62930;BMP280;49036;42.782;23.108;2023-06-14T13:55:01;93613.19;;;28.73
62930;BMP280;49036;42.782;23.108;2023-06-14T13:57:26;93622.97;;;28.21
62930;BMP280;49036;42.782;23.108;2023-06-14T13:59:52;93629.50;;;28.09
62930;BMP280;49036;42.782;23.108;2023-06-14T14:02:20;93633.09;;;28.03
62930;BMP280;49036;42.782;23.108;2023-06-14T14:04:46;93622.06;;;27.49
62930;BMP280;49036;42.782;23.108;2023-06-14T14:07:18;93629.53;;;26.57
62930;BMP280;49036;42.782;23.108;2023-06-14T14:09:44;93642.34;;;25.67
62930;BMP280;49036;42.782;23.108;2023-06-14T14:12:10;93635.81;;;25.32
62930;BMP280;49036;42.782;23.108;2023-06-14T14:14:36;93643.53;;;25.03
62930;BMP280;49036;42.782;23.108;2023-06-14T14:17:02;93645.22;;;25.95
62930;BMP280;49036;42.782;23.108;2023-06-14T14:19:28;93652.16;;;27.13
62930;BMP280;49036;42.782;23.108;2023-06-14T14:21:53;93652.00;;;27.46
62930;BMP280;49036;42.782;23.108;2023-06-14T14:25:19;93661.41;;;27.20